sensor_id;sensor_type;location;lat;lon;timestamp;pressure;altitude;pressure_sealevel;temperature;humidity
11339;BME280;5724;42.684;23.252;2022-11-15T00:00:02;94933.38;;;2.93;100.00
11339;BME280;5724;42.684;23.252;2022-11-15T00:02:28;94936.56;;;2.95;100.00
11339;BME280;5724;42.684;23.252;2022-11-15T00:04:53;94935.31;;;2.73;100.00
11339;BME280;5724;42.684;23.252;2022-11-15T00:07:19;94932.34;;;2.56;100.00
11339;BME280;5724;42.684;23.252;2022-11-15T00:09:44;94925.50;;;2.45;100.00
11339;BME280;5724;42.684;23.252;2022-11-15T00:12:10;94931.19;;;2.43;100.00
11339;BME280;5724;42.684;23.252;2022-11-15T00:14:35;94925.66;;;2.35;100.00
11339;BME280;5724;42.684;23.252;2022-11-15T00:17:01;94912.03;;;2.26;100.00
11339;BME280;5724;42.684;23.252;2022-11-15T00:19:26;94915.38;;;2.18;100.00
11339;BME280;5724;42.684;23.252;2022-11-15T00:21:51;94923.41;;;2.04;100.00
11339;BME280;5724;42.684;23.252;2022-11-15T00:24:17;94920.91;;;2.26;100.00
11339;BME280;5724;42.684;23.252;2022-11-15T00:26:42;94913.56;;;2.13;100.00
11339;BME280;5724;42.684;23.252;2022-11-15T00:29:08;94910.94;;;2.08;100.00
11339;BME280;5724;42.684;23.252;2022-11-15T00:31:33;94905.75;;;2.12;100.00
11339;BME280;5724;42.684;23.252;2022-11-15T00:33:58;94913.19;;;2.01;100.00
11339;BME280;5724;42.684;23.252;2022-11-15T00:36:24;94913.47;;;1.99;100.00
11339;BME280;5724;42.684;23.252;2022-11-15T00:38:49;94911.75;;;2.09;100.00
11339;BME280;5724;42.684;23.252;2022-11-15T00:41:15;94908.72;;;1.91;100.00
11339;BME280;5724;42.684;23.252;2022-11-15T00:43:40;94908.97;;;1.76;100.00
11339;BME280;5724;42.684;23.252;2022-11-15T00:46:08;94905.34;;;2.05;100.00
11339;BME280;5724;42.684;23.252;2022-11-15T00:48:35;94903.94;;;2.26;100.00
11339;BME280;5724;42.684;23.252;2022-11-15T00:51:01;94902.91;;;2.41;100.00
11339;BME280;5724;42.684;23.252;2022-11-15T00:53:26;94886.72;;;2.22;100.00
11339;BME280;5724;42.684;23.252;2022-11-15T00:55:52;94908.38;;;1.98;100.00
11339;BME280;5724;42.684;23.252;2022-11-15T00:58:18;94905.69;;;1.98;100.00
11339;BME280;5724;42.684;23.252;2022-11-15T01:00:43;94899.00;;;2.14;100.00
11339;BME280;5724;42.684;23.252;2022-11-15T01:03:09;94893.38;;;2.11;100.00
11339;BME280;5724;42.684;23.252;2022-11-15T01:05:37;94893.75;;;2.23;100.00
11339;BME280;5724;42.684;23.252;2022-11-15T01:08:03;94899.25;;;2.32;100.00
11339;BME280;5724;42.684;23.252;2022-11-15T01:10:28;94899.56;;;2.11;100.00
11339;BME280;5724;42.684;23.252;2022-11-15T01:12:54;94898.63;;;2.02;100.00
11339;BME280;5724;42.684;23.252;2022-11-15T01:15:19;94893.22;;;2.02;100.00
11339;BME280;5724;42.684;23.252;2022-11-15T01:17:45;94900.75;;;2.05;100.00
11339;BME280;5724;42.684;23.252;2022-11-15T01:20:10;94896.44;;;2.04;100.00
11339;BME280;5724;42.684;23.252;2022-11-15T01:22:36;94885.22;;;1.78;100.00
11339;BME280;5724;42.684;23.252;2022-11-15T01:25:01;94896.81;;;1.97;100.00
11339;BME280;5724;42.684;23.252;2022-11-15T01:27:27;94891.41;;;1.97;100.00
11339;BME280;5724;42.684;23.252;2022-11-15T01:29:53;94892.06;;;2.08;100.00
11339;BME280;5724;42.684;23.252;2022-11-15T01:32:18;94889.03;;;2.15;100.00
11339;BME280;5724;42.684;23.252;2022-11-15T01:34:44;94893.16;;;2.07;100.00
11339;BME280;5724;42.684;23.252;2022-11-15T01:37:09;94889.72;;;2.20;100.00
11339;BME280;5724;42.684;23.252;2022-11-15T01:39:35;94891.25;;;2.26;100.00
11339;BME280;5724;42.684;23.252;2022-11-15T01:42:00;94884.63;;;2.38;100.00
11339;BME280;5724;42.684;23.252;2022-11-15T01:44:44;94875.22;;;2.35;100.00
11339;BME280;5724;42.684;23.252;2022-11-15T01:47:16;94885.72;;;2.37;100.00
11339;BME280;5724;42.684;23.252;2022-11-15T01:50:14;94884.31;;;2.39;100.00
11339;BME280;5724;42.684;23.252;2022-11-15T01:52:42;94879.66;;;2.45;100.00
11339;BME280;5724;42.684;23.252;2022-11-15T01:55:18;94881.16;;;2.51;100.00
11339;BME280;5724;42.684;23.252;2022-11-15T01:57:46;94877.06;;;2.72;100.00
11339;BME280;5724;42.684;23.252;2022-11-15T02:00:13;94868.50;;;2.51;100.00
11339;BME280;5724;42.684;23.252;2022-11-15T02:02:39;94881.28;;;2.27;100.00
11339;BME280;5724;42.684;23.252;2022-11-15T02:05:05;94876.50;;;2.05;100.00
11339;BME280;5724;42.684;23.252;2022-11-15T02:07:31;94878.00;;;2.30;100.00
11339;BME280;5724;42.684;23.252;2022-11-15T02:10:02;94883.22;;;2.40;100.00
11339;BME280;5724;42.684;23.252;2022-11-15T02:12:29;94875.94;;;2.41;100.00
11339;BME280;5724;42.684;23.252;2022-11-15T02:14:55;94857.31;;;2.25;100.00
11339;BME280;5724;42.684;23.252;2022-11-15T02:31:03;94867.22;;;1.73;100.00
11339;BME280;5724;42.684;23.252;2022-11-15T02:38:59;94866.22;;;0.74;100.00
11339;BME280;5724;42.684;23.252;2022-11-15T02:41:37;94870.06;;;0.68;100.00
11339;BME280;5724;42.684;23.252;2022-11-15T02:44:12;94862.44;;;0.75;100.00
11339;BME280;5724;42.684;23.252;2022-11-15T02:46:58;94861.78;;;0.88;100.00
11339;BME280;5724;42.684;23.252;2022-11-15T02:49:44;94865.03;;;0.85;100.00
11339;BME280;5724;42.684;23.252;2022-11-15T02:52:18;94864.75;;;0.86;100.00
11339;BME280;5724;42.684;23.252;2022-11-15T02:57:28;94865.97;;;0.99;100.00
11339;BME280;5724;42.684;23.252;2022-11-15T03:00:07;94862.19;;;1.00;100.00
11339;BME280;5724;42.684;23.252;2022-11-15T03:02:39;94878.22;;;1.10;100.00
11339;BME280;5724;42.684;23.252;2022-11-15T03:05:19;94883.00;;;1.19;100.00
11339;BME280;5724;42.684;23.252;2022-11-15T03:10:35;94870.28;;;1.00;100.00
11339;BME280;5724;42.684;23.252;2022-11-15T03:13:31;94868.72;;;1.18;100.00
11339;BME280;5724;42.684;23.252;2022-11-15T03:18:37;94865.41;;;1.02;100.00
11339;BME280;5724;42.684;23.252;2022-11-15T03:21:08;94854.81;;;1.11;100.00
11339;BME280;5724;42.684;23.252;2022-11-15T03:23:36;94824.56;;;0.95;100.00
11339;BME280;5724;42.684;23.252;2022-11-15T03:26:05;94856.81;;;1.24;100.00
11339;BME280;5724;42.684;23.252;2022-11-15T03:28:49;94857.38;;;1.45;100.00
11339;BME280;5724;42.684;23.252;2022-11-15T03:31:16;94863.59;;;1.64;100.00
11339;BME280;5724;42.684;23.252;2022-11-15T03:34:05;94854.75;;;1.59;100.00
11339;BME280;5724;42.684;23.252;2022-11-15T03:36:33;94846.66;;;1.40;100.00
11339;BME280;5724;42.684;23.252;2022-11-15T03:39:07;94845.84;;;1.39;100.00
11339;BME280;5724;42.684;23.252;2022-11-15T03:47:38;94840.47;;;1.39;100.00
11339;BME280;5724;42.684;23.252;2022-11-15T03:50:12;94833.91;;;1.27;100.00
11339;BME280;5724;42.684;23.252;2022-11-15T03:52:39;94843.81;;;1.31;100.00
11339;BME280;5724;42.684;23.252;2022-11-15T03:55:08;94837.03;;;1.34;100.00
11339;BME280;5724;42.684;23.252;2022-11-15T03:57:34;94832.78;;;1.52;100.00
11339;BME280;5724;42.684;23.252;2022-11-15T03:59:59;94835.56;;;1.65;100.00
11339;BME280;5724;42.684;23.252;2022-11-15T04:02:25;94833.53;;;1.95;100.00
11339;BME280;5724;42.684;23.252;2022-11-15T04:04:50;94832.72;;;1.76;100.00
11339;BME280;5724;42.684;23.252;2022-11-15T04:07:16;94830.69;;;1.67;100.00
11339;BME280;5724;42.684;23.252;2022-11-15T04:10:00;94822.75;;;1.76;100.00
11339;BME280;5724;42.684;23.252;2022-11-15T04:12:37;94825.88;;;1.64;100.00
11339;BME280;5724;42.684;23.252;2022-11-15T04:15:15;94824.50;;;1.67;100.00
11339;BME280;5724;42.684;23.252;2022-11-15T04:18:06;94809.50;;;1.61;100.00
11339;BME280;5724;42.684;23.252;2022-11-15T04:20:30;94828.03;;;1.62;100.00
11339;BME280;5724;42.684;23.252;2022-11-15T04:23:17;94825.94;;;1.59;100.00
11339;BME280;5724;42.684;23.252;2022-11-15T04:26:07;94819.47;;;1.60;100.00
11339;BME280;5724;42.684;23.252;2022-11-15T04:28:33;94824.25;;;1.63;100.00
11339;BME280;5724;42.684;23.252;2022-11-15T04:30:59;94829.38;;;1.65;100.00
11339;BME280;5724;42.684;23.252;2022-11-15T04:33:24;94819.53;;;1.55;100.00
11339;BME280;5724;42.684;23.252;2022-11-15T04:35:50;94822.78;;;1.52;100.00
11339;BME280;5724;42.684;23.252;2022-11-15T04:38:36;94828.63;;;1.40;100.00
11339;BME280;5724;42.684;23.252;2022-11-15T04:41:02;94811.28;;;1.28;100.00
11339;BME280;5724;42.684;23.252;2022-11-15T04:43:28;94823.81;;;1.37;100.00
11339;BME280;5724;42.684;23.252;2022-11-15T04:45:54;94823.84;;;1.56;100.00
11339;BME280;5724;42.684;23.252;2022-11-15T04:48:20;94826.53;;;1.75;100.00
11339;BME280;5724;42.684;23.252;2022-11-15T04:50:48;94827.63;;;1.74;100.00
11339;BME280;5724;42.684;23.252;2022-11-15T04:53:13;94832.09;;;1.41;100.00
11339;BME280;5724;42.684;23.252;2022-11-15T04:55:39;94817.75;;;1.27;100.00
11339;BME280;5724;42.684;23.252;2022-11-15T04:58:04;94818.41;;;1.19;100.00
11339;BME280;5724;42.684;23.252;2022-11-15T05:00:30;94829.66;;;1.21;100.00
11339;BME280;5724;42.684;23.252;2022-11-15T05:02:56;94833.50;;;1.14;100.00
11339;BME280;5724;42.684;23.252;2022-11-15T05:05:41;94833.13;;;1.26;100.00
11339;BME280;5724;42.684;23.252;2022-11-15T05:08:06;94836.94;;;1.20;100.00
11339;BME280;5724;42.684;23.252;2022-11-15T05:10:32;94833.88;;;1.08;100.00
11339;BME280;5724;42.684;23.252;2022-11-15T05:12:57;94836.19;;;1.14;100.00
11339;BME280;5724;42.684;23.252;2022-11-15T05:15:22;94836.53;;;1.32;100.00
11339;BME280;5724;42.684;23.252;2022-11-15T05:17:48;94830.38;;;1.50;100.00
11339;BME280;5724;42.684;23.252;2022-11-15T05:20:13;94818.97;;;1.58;100.00
11339;BME280;5724;42.684;23.252;2022-11-15T05:22:39;94810.53;;;1.65;100.00
11339;BME280;5724;42.684;23.252;2022-11-15T05:25:05;94826.34;;;1.29;100.00
11339;BME280;5724;42.684;23.252;2022-11-15T05:27:32;94822.44;;;1.40;100.00
11339;BME280;5724;42.684;23.252;2022-11-15T05:29:57;94810.91;;;1.34;100.00
11339;BME280;5724;42.684;23.252;2022-11-15T05:32:23;94823.53;;;1.39;100.00
11339;BME280;5724;42.684;23.252;2022-11-15T05:34:49;94821.41;;;1.36;100.00
11339;BME280;5724;42.684;23.252;2022-11-15T05:37:15;94819.53;;;1.36;100.00
11339;BME280;5724;42.684;23.252;2022-11-15T05:39:41;94819.94;;;1.43;100.00
11339;BME280;5724;42.684;23.252;2022-11-15T05:42:11;94823.97;;;1.46;100.00
11339;BME280;5724;42.684;23.252;2022-11-15T05:44:41;94816.41;;;1.48;100.00
11339;BME280;5724;42.684;23.252;2022-11-15T05:47:10;94803.00;;;1.43;100.00
11339;BME280;5724;42.684;23.252;2022-11-15T05:49:39;94818.75;;;1.55;100.00
11339;BME280;5724;42.684;23.252;2022-11-15T05:52:07;94820.34;;;1.56;100.00
11339;BME280;5724;42.684;23.252;2022-11-15T05:54:36;94829.28;;;1.51;100.00
11339;BME280;5724;42.684;23.252;2022-11-15T05:57:03;94825.28;;;1.49;100.00
11339;BME280;5724;42.684;23.252;2022-11-15T05:59:30;94829.88;;;1.67;100.00
11339;BME280;5724;42.684;23.252;2022-11-15T06:01:56;94833.44;;;1.62;100.00
11339;BME280;5724;42.684;23.252;2022-11-15T06:04:21;94833.97;;;1.64;100.00
11339;BME280;5724;42.684;23.252;2022-11-15T06:06:47;94832.78;;;1.70;100.00
11339;BME280;5724;42.684;23.252;2022-11-15T06:09:12;94834.38;;;1.90;100.00
11339;BME280;5724;42.684;23.252;2022-11-15T06:11:38;94827.97;;;2.05;100.00
11339;BME280;5724;42.684;23.252;2022-11-15T06:14:03;94843.06;;;1.87;100.00
11339;BME280;5724;42.684;23.252;2022-11-15T06:16:29;94838.25;;;1.65;100.00
11339;BME280;5724;42.684;23.252;2022-11-15T06:18:54;94836.34;;;1.47;100.00
11339;BME280;5724;42.684;23.252;2022-11-15T06:21:20;94833.22;;;1.59;100.00
11339;BME280;5724;42.684;23.252;2022-11-15T06:23:45;94833.81;;;1.56;100.00
11339;BME280;5724;42.684;23.252;2022-11-15T06:26:10;94835.63;;;1.60;100.00
11339;BME280;5724;42.684;23.252;2022-11-15T06:28:36;94822.25;;;1.55;100.00
11339;BME280;5724;42.684;23.252;2022-11-15T06:31:06;94826.53;;;1.56;100.00
11339;BME280;5724;42.684;23.252;2022-11-15T06:33:32;94833.59;;;1.71;100.00
11339;BME280;5724;42.684;23.252;2022-11-15T06:36:06;94830.53;;;1.78;100.00
11339;BME280;5724;42.684;23.252;2022-11-15T06:38:32;94815.81;;;1.89;100.00
11339;BME280;5724;42.684;23.252;2022-11-15T06:41:03;94832.91;;;2.17;100.00
11339;BME280;5724;42.684;23.252;2022-11-15T06:43:30;94840.78;;;2.32;100.00
11339;BME280;5724;42.684;23.252;2022-11-15T06:45:57;94827.91;;;1.72;100.00
11339;BME280;5724;42.684;23.252;2022-11-15T06:48:23;94822.16;;;1.60;100.00
11339;BME280;5724;42.684;23.252;2022-11-15T06:50:57;94825.19;;;1.54;100.00
11339;BME280;5724;42.684;23.252;2022-11-15T06:53:23;94827.69;;;1.50;100.00
11339;BME280;5724;42.684;23.252;2022-11-15T06:55:49;94808.69;;;1.41;100.00
11339;BME280;5724;42.684;23.252;2022-11-15T06:58:14;94824.63;;;1.38;100.00
11339;BME280;5724;42.684;23.252;2022-11-15T07:00:40;94823.53;;;1.39;100.00
11339;BME280;5724;42.684;23.252;2022-11-15T07:03:06;94822.25;;;1.55;100.00
11339;BME280;5724;42.684;23.252;2022-11-15T07:05:32;94829.38;;;1.65;100.00
11339;BME280;5724;42.684;23.252;2022-11-15T07:07:58;94809.13;;;1.67;100.00
11339;BME280;5724;42.684;23.252;2022-11-15T07:10:24;94824.34;;;1.77;100.00
11339;BME280;5724;42.684;23.252;2022-11-15T07:12:54;94816.47;;;1.99;100.00
11339;BME280;5724;42.684;23.252;2022-11-15T07:15:23;94815.47;;;1.95;100.00
11339;BME280;5724;42.684;23.252;2022-11-15T07:17:48;94812.97;;;1.99;100.00
11339;BME280;5724;42.684;23.252;2022-11-15T07:20:14;94797.63;;;1.81;100.00
11339;BME280;5724;42.684;23.252;2022-11-15T07:22:40;94819.69;;;1.83;100.00
11339;BME280;5724;42.684;23.252;2022-11-15T07:25:06;94830.44;;;1.83;100.00
11339;BME280;5724;42.684;23.252;2022-11-15T07:27:32;94817.41;;;1.90;100.00
11339;BME280;5724;42.684;23.252;2022-11-15T07:29:57;94823.59;;;1.90;100.00
11339;BME280;5724;42.684;23.252;2022-11-15T07:32:23;94824.56;;;1.81;100.00
11339;BME280;5724;42.684;23.252;2022-11-15T07:34:48;94829.78;;;1.91;100.00
11339;BME280;5724;42.684;23.252;2022-11-15T07:37:14;94821.06;;;1.99;100.00
11339;BME280;5724;42.684;23.252;2022-11-15T07:39:39;94824.31;;;2.15;100.00
11339;BME280;5724;42.684;23.252;2022-11-15T07:42:05;94831.50;;;2.38;100.00
11339;BME280;5724;42.684;23.252;2022-11-15T07:44:48;94825.75;;;2.58;100.00
11339;BME280;5724;42.684;23.252;2022-11-15T07:47:14;94827.00;;;2.34;100.00
11339;BME280;5724;42.684;23.252;2022-11-15T07:49:39;94831.63;;;2.14;100.00
11339;BME280;5724;42.684;23.252;2022-11-15T07:52:05;94829.34;;;2.03;100.00
11339;BME280;5724;42.684;23.252;2022-11-15T07:54:30;94816.16;;;2.01;100.00
11339;BME280;5724;42.684;23.252;2022-11-15T07:56:56;94824.09;;;2.11;100.00
11339;BME280;5724;42.684;23.252;2022-11-15T07:59:21;94825.19;;;2.10;100.00
11339;BME280;5724;42.684;23.252;2022-11-15T08:01:47;94820.84;;;2.14;100.00
11339;BME280;5724;42.684;23.252;2022-11-15T08:04:12;94825.28;;;2.05;100.00
11339;BME280;5724;42.684;23.252;2022-11-15T08:06:38;94822.50;;;1.91;100.00
11339;BME280;5724;42.684;23.252;2022-11-15T08:09:03;94816.41;;;1.67;100.00
11339;BME280;5724;42.684;23.252;2022-11-15T08:11:29;94809.34;;;1.90;100.00
11339;BME280;5724;42.684;23.252;2022-11-15T08:13:54;94802.94;;;1.86;100.00
11339;BME280;5724;42.684;23.252;2022-11-15T08:16:20;94813.19;;;2.03;100.00
11339;BME280;5724;42.684;23.252;2022-11-15T08:18:46;94816.25;;;2.15;100.00
11339;BME280;5724;42.684;23.252;2022-11-15T08:21:18;94816.38;;;2.23;100.00
11339;BME280;5724;42.684;23.252;2022-11-15T08:23:44;94810.41;;;2.40;100.00
11339;BME280;5724;42.684;23.252;2022-11-15T08:26:10;94798.81;;;2.40;100.00
11339;BME280;5724;42.684;23.252;2022-11-15T08:28:36;94801.38;;;2.17;100.00
11339;BME280;5724;42.684;23.252;2022-11-15T08:31:02;94803.47;;;2.20;100.00
11339;BME280;5724;42.684;23.252;2022-11-15T08:33:28;94806.59;;;2.27;100.00
11339;BME280;5724;42.684;23.252;2022-11-15T08:35:56;94801.31;;;2.36;100.00
11339;BME280;5724;42.684;23.252;2022-11-15T08:38:22;94801.66;;;2.48;100.00
11339;BME280;5724;42.684;23.252;2022-11-15T08:40:48;94797.97;;;2.58;100.00
11339;BME280;5724;42.684;23.252;2022-11-15T08:43:13;94794.78;;;2.56;100.00
11339;BME280;5724;42.684;23.252;2022-11-15T08:45:39;94797.00;;;2.68;100.00
11339;BME280;5724;42.684;23.252;2022-11-15T08:48:04;94798.16;;;2.48;100.00
11339;BME280;5724;42.684;23.252;2022-11-15T08:50:31;94790.38;;;2.46;100.00
11339;BME280;5724;42.684;23.252;2022-11-15T08:52:56;94788.38;;;2.52;100.00
11339;BME280;5724;42.684;23.252;2022-11-15T08:55:22;94787.22;;;2.72;100.00
11339;BME280;5724;42.684;23.252;2022-11-15T08:57:47;94780.72;;;2.86;100.00
11339;BME280;5724;42.684;23.252;2022-11-15T09:00:13;94791.63;;;2.81;100.00
11339;BME280;5724;42.684;23.252;2022-11-15T09:02:39;94776.53;;;2.94;100.00
11339;BME280;5724;42.684;23.252;2022-11-15T09:05:06;94763.00;;;3.08;100.00
11339;BME280;5724;42.684;23.252;2022-11-15T09:07:31;94777.09;;;3.32;100.00
11339;BME280;5724;42.684;23.252;2022-11-15T09:09:57;94773.69;;;3.40;100.00
11339;BME280;5724;42.684;23.252;2022-11-15T09:12:23;94764.66;;;3.09;100.00
11339;BME280;5724;42.684;23.252;2022-11-15T09:14:49;94761.41;;;3.07;100.00
11339;BME280;5724;42.684;23.252;2022-11-15T09:17:14;94766.31;;;3.05;100.00
11339;BME280;5724;42.684;23.252;2022-11-15T09:19:40;94764.53;;;3.14;100.00
11339;BME280;5724;42.684;23.252;2022-11-15T09:22:06;94747.56;;;3.00;100.00
11339;BME280;5724;42.684;23.252;2022-11-15T09:24:33;94751.16;;;3.09;100.00
11339;BME280;5724;42.684;23.252;2022-11-15T09:26:58;94742.72;;;2.97;100.00
11339;BME280;5724;42.684;23.252;2022-11-15T09:29:24;94745.31;;;3.15;100.00
11339;BME280;5724;42.684;23.252;2022-11-15T09:31:51;94722.03;;;3.06;100.00
11339;BME280;5724;42.684;23.252;2022-11-15T09:34:17;94744.34;;;3.11;100.00
11339;BME280;5724;42.684;23.252;2022-11-15T09:36:42;94747.72;;;3.03;100.00
11339;BME280;5724;42.684;23.252;2022-11-15T09:39:08;94735.94;;;3.13;100.00
11339;BME280;5724;42.684;23.252;2022-11-15T09:44:38;94734.81;;;3.64;100.00
11339;BME280;5724;42.684;23.252;2022-11-15T09:47:33;94735.19;;;3.93;100.00
11339;BME280;5724;42.684;23.252;2022-11-15T09:50:09;94726.13;;;3.53;100.00
11339;BME280;5724;42.684;23.252;2022-11-15T09:52:36;94720.78;;;3.39;100.00
11339;BME280;5724;42.684;23.252;2022-11-15T09:55:04;94720.34;;;3.46;100.00
11339;BME280;5724;42.684;23.252;2022-11-15T09:57:54;94714.00;;;3.64;100.00
11339;BME280;5724;42.684;23.252;2022-11-15T10:00:38;94712.09;;;3.65;100.00
11339;BME280;5724;42.684;23.252;2022-11-15T10:03:25;94708.22;;;3.57;100.00
11339;BME280;5724;42.684;23.252;2022-11-15T10:05:54;94706.44;;;3.75;100.00
11339;BME280;5724;42.684;23.252;2022-11-15T10:10:47;94695.06;;;4.09;100.00
11339;BME280;5724;42.684;23.252;2022-11-15T10:13:26;94692.69;;;4.39;100.00
11339;BME280;5724;42.684;23.252;2022-11-15T10:16:09;94680.06;;;4.25;100.00
11339;BME280;5724;42.684;23.252;2022-11-15T10:19:26;94682.16;;;4.28;100.00
11339;BME280;5724;42.684;23.252;2022-11-15T10:24:11;94682.03;;;4.42;100.00
11339;BME280;5724;42.684;23.252;2022-11-15T10:26:37;94680.81;;;4.48;100.00
11339;BME280;5724;42.684;23.252;2022-11-15T10:29:02;94670.38;;;4.64;100.00
11339;BME280;5724;42.684;23.252;2022-11-15T10:31:28;94665.41;;;4.57;100.00
11339;BME280;5724;42.684;23.252;2022-11-15T10:34:18;94662.13;;;4.78;100.00
11339;BME280;5724;42.684;23.252;2022-11-15T10:36:45;94653.69;;;4.79;100.00
11339;BME280;5724;42.684;23.252;2022-11-15T10:39:13;94652.78;;;4.93;100.00
11339;BME280;5724;42.684;23.252;2022-11-15T10:41:40;94640.16;;;4.88;100.00
11339;BME280;5724;42.684;23.252;2022-11-15T10:46:32;94635.59;;;5.14;100.00
11339;BME280;5724;42.684;23.252;2022-11-15T10:51:46;94634.34;;;5.46;100.00
11339;BME280;5724;42.684;23.252;2022-11-15T10:54:17;94623.19;;;5.48;100.00
11339;BME280;5724;42.684;23.252;2022-11-15T10:56:49;94615.84;;;5.40;100.00
11339;BME280;5724;42.684;23.252;2022-11-15T10:59:29;94622.06;;;5.49;100.00
11339;BME280;5724;42.684;23.252;2022-11-15T11:01:56;94621.13;;;5.62;100.00
11339;BME280;5724;42.684;23.252;2022-11-15T11:04:24;94615.34;;;5.72;100.00
11339;BME280;5724;42.684;23.252;2022-11-15T11:06:54;94606.09;;;5.73;100.00
11339;BME280;5724;42.684;23.252;2022-11-15T11:09:33;94606.88;;;5.83;100.00
11339;BME280;5724;42.684;23.252;2022-11-15T11:12:00;94602.69;;;6.11;100.00
11339;BME280;5724;42.684;23.252;2022-11-15T11:14:32;94601.69;;;6.24;100.00
11339;BME280;5724;42.684;23.252;2022-11-15T11:20:02;94587.22;;;6.50;97.99
11339;BME280;5724;42.684;23.252;2022-11-15T11:25:33;94575.41;;;6.46;98.08
11339;BME280;5724;42.684;23.252;2022-11-15T11:33:53;94549.22;;;6.79;96.85
11339;BME280;5724;42.684;23.252;2022-11-15T11:48:20;94538.34;;;7.21;92.00
11339;BME280;5724;42.684;23.252;2022-11-15T11:50:48;94536.69;;;7.29;91.84
11339;BME280;5724;42.684;23.252;2022-11-15T11:53:31;94530.16;;;7.42;91.39
11339;BME280;5724;42.684;23.252;2022-11-15T11:56:11;94515.44;;;7.43;91.29
11339;BME280;5724;42.684;23.252;2022-11-15T11:58:43;94520.50;;;7.32;90.18
11339;BME280;5724;42.684;23.252;2022-11-15T12:01:25;94526.50;;;7.26;91.08
11339;BME280;5724;42.684;23.252;2022-11-15T12:09:55;94500.91;;;7.27;90.89
11339;BME280;5724;42.684;23.252;2022-11-15T12:12:40;94503.59;;;7.47;90.57
11339;BME280;5724;42.684;23.252;2022-11-15T12:17:36;94490.81;;;7.27;90.04
11339;BME280;5724;42.684;23.252;2022-11-15T12:20:06;94493.09;;;7.04;90.75
11339;BME280;5724;42.684;23.252;2022-11-15T12:22:43;94488.22;;;6.98;91.39
11339;BME280;5724;42.684;23.252;2022-11-15T12:27:41;94478.38;;;7.26;91.27
11339;BME280;5724;42.684;23.252;2022-11-15T12:30:17;94470.81;;;7.11;90.60
11339;BME280;5724;42.684;23.252;2022-11-15T12:32:59;94479.28;;;7.30;90.38
11339;BME280;5724;42.684;23.252;2022-11-15T12:35:41;94467.72;;;7.33;90.07
11339;BME280;5724;42.684;23.252;2022-11-15T12:38:11;94479.28;;;7.30;89.67
11339;BME280;5724;42.684;23.252;2022-11-15T12:40:39;94468.25;;;7.14;90.09
11339;BME280;5724;42.684;23.252;2022-11-15T12:43:38;94464.66;;;7.02;90.59
11339;BME280;5724;42.684;23.252;2022-11-15T12:46:06;94452.03;;;7.06;90.88
11339;BME280;5724;42.684;23.252;2022-11-15T12:51:02;94448.72;;;7.00;90.44
11339;BME280;5724;42.684;23.252;2022-11-15T12:53:32;94456.34;;;7.07;90.76
11339;BME280;5724;42.684;23.252;2022-11-15T12:58:43;94452.06;;;7.18;90.37
11339;BME280;5724;42.684;23.252;2022-11-15T13:04:26;94443.91;;;7.18;90.55
11339;BME280;5724;42.684;23.252;2022-11-15T13:07:00;94447.06;;;7.08;91.46
11339;BME280;5724;42.684;23.252;2022-11-15T13:17:36;94427.59;;;7.06;91.15
11339;BME280;5724;42.684;23.252;2022-11-15T13:22:40;94426.38;;;7.15;91.69
11339;BME280;5724;42.684;23.252;2022-11-15T13:30:37;94417.22;;;7.32;90.01
11339;BME280;5724;42.684;23.252;2022-11-15T13:35:47;94419.56;;;7.55;89.49
11339;BME280;5724;42.684;23.252;2022-11-15T13:38:29;94422.97;;;7.64;89.03
11339;BME280;5724;42.684;23.252;2022-11-15T13:40:56;94410.72;;;7.58;89.12
11339;BME280;5724;42.684;23.252;2022-11-15T13:46:07;94423.97;;;7.71;88.96
11339;BME280;5724;42.684;23.252;2022-11-15T13:48:33;94410.03;;;7.61;88.79
11339;BME280;5724;42.684;23.252;2022-11-15T13:51:01;94415.03;;;7.59;89.05
11339;BME280;5724;42.684;23.252;2022-11-15T13:53:30;94410.69;;;7.45;89.62
11339;BME280;5724;42.684;23.252;2022-11-15T13:55:57;94413.50;;;7.25;89.96
11339;BME280;5724;42.684;23.252;2022-11-15T13:58:23;94408.47;;;7.14;91.28
11339;BME280;5724;42.684;23.252;2022-11-15T14:01:01;94410.16;;;7.07;91.41
11339;BME280;5724;42.684;23.252;2022-11-15T14:03:30;94418.56;;;6.93;91.94
11339;BME280;5724;42.684;23.252;2022-11-15T14:06:14;94414.09;;;6.76;93.04
11339;BME280;5724;42.684;23.252;2022-11-15T14:11:29;94414.19;;;6.47;95.34
11339;BME280;5724;42.684;23.252;2022-11-15T14:16:37;94409.00;;;6.33;96.16
11339;BME280;5724;42.684;23.252;2022-11-15T14:19:05;94393.78;;;6.20;96.85
11339;BME280;5724;42.684;23.252;2022-11-15T14:21:32;94409.06;;;6.24;97.32
11339;BME280;5724;42.684;23.252;2022-11-15T14:24:20;94401.97;;;6.11;97.98
11339;BME280;5724;42.684;23.252;2022-11-15T14:26:46;94401.94;;;5.90;99.49
11339;BME280;5724;42.684;23.252;2022-11-15T14:29:28;94408.69;;;5.67;100.00
11339;BME280;5724;42.684;23.252;2022-11-15T14:32:20;94404.81;;;5.47;100.00
11339;BME280;5724;42.684;23.252;2022-11-15T14:34:48;94404.50;;;5.40;100.00
11339;BME280;5724;42.684;23.252;2022-11-15T14:37:31;94403.59;;;5.27;100.00
11339;BME280;5724;42.684;23.252;2022-11-15T14:40:04;94403.47;;;5.15;100.00
11339;BME280;5724;42.684;23.252;2022-11-15T14:42:30;94406.22;;;5.06;100.00
11339;BME280;5724;42.684;23.252;2022-11-15T14:44:56;94407.66;;;4.95;100.00
11339;BME280;5724;42.684;23.252;2022-11-15T14:47:21;94409.41;;;4.82;100.00
11339;BME280;5724;42.684;23.252;2022-11-15T14:49:47;94397.00;;;4.73;100.00
11339;BME280;5724;42.684;23.252;2022-11-15T14:52:28;94414.38;;;4.72;100.00
11339;BME280;5724;42.684;23.252;2022-11-15T14:54:55;94407.38;;;4.62;100.00
11339;BME280;5724;42.684;23.252;2022-11-15T14:57:21;94396.88;;;4.52;100.00
11339;BME280;5724;42.684;23.252;2022-11-15T14:59:47;94402.13;;;4.48;100.00
11339;BME280;5724;42.684;23.252;2022-11-15T15:02:21;94405.63;;;4.40;100.00
11339;BME280;5724;42.684;23.252;2022-11-15T15:04:47;94396.91;;;4.35;100.00
11339;BME280;5724;42.684;23.252;2022-11-15T15:07:14;94399.44;;;4.40;100.00
11339;BME280;5724;42.684;23.252;2022-11-15T15:09:39;94388.59;;;4.40;100.00